Time;durP1;ratioP1;P1;durP2;ratioP2;P2;SDS_P1;SDS_P2;PMS_P1;PMS_P2;Temp;Humidity;BMP_temperature;BMP_pressure;BME280_temperature;BME280_humidity;BME280_pressure;Samples;Min_cycle;Max_cycle;Signal;HPM_P1;HPM_P2
2023/04/29 00:01:25;;;;;;;7.18;6.18;;;12.80;99.90;;;;;;5049228;28;20207;-80
2023/04/29 00:03:53;;;;;;;9.13;6.38;;;12.70;99.90;;;;;;5037596;28;20185;-82
2023/04/29 00:06:21;;;;;;;11.07;6.97;;;12.70;99.90;;;;;;5044630;28;20240;-84
2023/04/29 00:08:48;;;;;;;12.07;6.70;;;12.60;99.90;;;;;;5045230;28;20232;-80
2023/04/29 00:11:18;;;;;;;8.68;7.65;;;12.50;99.90;;;;;;5027171;28;20405;-80
2023/04/29 00:13:45;;;;;;;7.80;7.00;;;12.50;99.90;;;;;;5003889;28;20201;-81
2023/04/29 00:16:12;;;;;;;10.70;6.50;;;12.50;99.90;;;;;;5029123;28;20259;-80
2023/04/29 00:18:39;;;;;;;10.40;7.32;;;12.50;99.90;;;;;;5018612;28;20691;-80
2023/04/29 00:21:09;;;;;;;10.07;6.22;;;12.50;99.90;;;;;;5029274;28;20201;-80
2023/04/29 00:23:36;;;;;;;10.25;7.47;;;12.60;99.90;;;;;;5019261;28;20386;-81
2023/04/29 00:26:03;;;;;;;7.82;7.13;;;12.50;99.90;;;;;;5009234;28;20232;-80
2023/04/29 00:28:30;;;;;;;8.23;6.68;;;12.60;99.90;;;;;;5029265;28;20209;-85
2023/04/29 00:30:57;;;;;;;8.00;6.32;;;12.50;99.90;;;;;;5021430;28;20205;-80
2023/04/29 00:33:24;;;;;;;9.30;7.75;;;12.60;99.90;;;;;;5033366;28;20284;-79
2023/04/29 00:35:51;;;;;;;7.72;6.85;;;12.50;99.90;;;;;;5033619;28;20221;-81
2023/04/29 00:38:18;;;;;;;12.23;7.45;;;12.50;99.90;;;;;;5033821;28;20288;-80
2023/04/29 00:40:46;;;;;;;7.63;5.93;;;12.40;99.90;;;;;;5027748;28;20196;-81
2023/04/29 00:43:13;;;;;;;8.38;6.63;;;12.40;99.90;;;;;;5036573;28;20206;-81
2023/04/29 00:45:40;;;;;;;10.45;7.82;;;12.30;99.90;;;;;;5017355;28;20247;-81
2023/04/29 00:48:07;;;;;;;11.50;7.28;;;12.40;99.90;;;;;;5023851;28;20524;-82
2023/04/29 00:50:35;;;;;;;10.30;6.88;;;12.30;99.90;;;;;;5030510;28;20208;-81
2023/04/29 00:53:02;;;;;;;8.48;7.53;;;12.20;99.90;;;;;;5032169;28;20276;-81
2023/04/29 00:55:31;;;;;;;8.02;7.00;;;12.30;99.90;;;;;;5025137;28;20213;-80
2023/04/29 00:57:59;;;;;;;8.95;7.80;;;12.20;99.90;;;;;;5003708;28;20217;-81
2023/04/29 01:00:27;;;;;;;10.52;7.75;;;12.20;99.90;;;;;;5032407;28;20212;-82
2023/04/29 01:02:55;;;;;;;7.72;6.00;;;12.20;99.90;;;;;;5035728;28;20196;-82
2023/04/29 01:05:23;;;;;;;8.63;7.35;;;12.20;99.90;;;;;;5045320;28;20224;-83
2023/04/29 01:08:28;;;;;;;10.02;8.05;;;12.20;99.90;;;;;;5022017;28;20208;-83
2023/04/29 01:11:08;;;;;;;9.60;7.72;;;12.30;99.90;;;;;;5029535;28;20203;-82
2023/04/29 01:13:51;;;;;;;7.95;6.90;;;12.30;99.90;;;;;;5036464;28;20477;-80
2023/04/29 01:16:18;;;;;;;8.90;7.90;;;12.30;99.90;;;;;;5011552;28;20209;-79
2023/04/29 01:18:51;;;;;;;9.48;7.55;;;12.40;99.90;;;;;;5023331;28;20215;-81
2023/04/29 01:21:19;;;;;;;9.88;7.15;;;12.60;99.90;;;;;;5029098;28;20524;-80
2023/04/29 01:23:46;;;;;;;11.32;8.18;;;12.40;99.90;;;;;;5023339;28;20489;-81
2023/04/29 01:26:13;;;;;;;13.85;9.43;;;12.50;99.90;;;;;;5027981;28;20260;-80
2023/04/29 01:28:58;;;;;;;11.63;8.27;;;12.40;99.90;;;;;;5024041;28;20232;-80
2023/04/29 01:31:40;;;;;;;9.43;7.13;;;12.40;99.90;;;;;;5021759;28;20208;-79
2023/04/29 01:34:13;;;;;;;8.65;7.70;;;12.40;99.90;;;;;;5019881;28;20531;-80
2023/04/29 01:37:06;;;;;;;8.68;7.53;;;12.20;99.90;;;;;;5029558;28;20209;-80
2023/04/29 01:40:10;;;;;;;10.15;8.88;;;12.10;99.90;;;;;;5029249;28;20323;-82
2023/04/29 01:43:00;;;;;;;9.95;8.27;;;12.10;99.90;;;;;;5037176;28;20212;-83
2023/04/29 01:45:28;;;;;;;14.32;9.55;;;12.10;99.90;;;;;;5013556;28;20213;-80
2023/04/29 01:47:58;;;;;;;13.35;8.05;;;12.00;99.90;;;;;;5032018;28;20204;-83
2023/04/29 01:50:29;;;;;;;12.05;8.85;;;12.00;99.90;;;;;;5026404;28;20212;-81
2023/04/29 01:52:56;;;;;;;12.63;9.25;;;11.90;99.90;;;;;;5020257;28;20205;-82
2023/04/29 01:55:25;;;;;;;14.65;9.93;;;11.90;99.90;;;;;;5024712;28;20209;-81
2023/04/29 01:57:53;;;;;;;14.55;8.93;;;11.80;99.90;;;;;;5033112;28;20200;-82
2023/04/29 02:00:20;;;;;;;13.43;9.10;;;11.80;99.90;;;;;;5034573;28;20209;-80
2023/04/29 02:02:48;;;;;;;12.00;8.68;;;11.80;99.90;;;;;;5032155;28;20239;-81
2023/04/29 02:05:17;;;;;;;12.57;9.52;;;11.70;99.90;;;;;;5034604;28;20208;-83
2023/04/29 02:07:44;;;;;;;12.27;9.43;;;11.80;99.90;;;;;;5023013;28;20236;-80
2023/04/29 02:10:11;;;;;;;12.30;9.32;;;11.70;99.90;;;;;;5030258;28;20231;-83
2023/04/29 02:12:39;;;;;;;14.40;9.02;;;11.60;99.90;;;;;;5020252;28;20362;-84
2023/04/29 02:15:07;;;;;;;12.93;10.00;;;11.50;99.90;;;;;;5026544;28;20207;-86
2023/04/29 02:17:35;;;;;;;10.80;9.70;;;11.40;99.90;;;;;;5022466;28;20216;-83
2023/04/29 02:20:02;;;;;;;15.02;10.25;;;11.40;99.90;;;;;;5025651;28;20227;-84
2023/04/29 02:22:29;;;;;;;14.30;10.90;;;11.30;99.90;;;;;;5010180;28;20240;-82
2023/04/29 02:24:57;;;;;;;11.57;10.30;;;11.20;99.90;;;;;;5027632;28;20390;-82
2023/04/29 02:27:26;;;;;;;13.20;10.65;;;11.30;99.90;;;;;;5026735;28;20448;-82
2023/04/29 02:29:53;;;;;;;17.73;11.00;;;11.40;99.90;;;;;;5037062;28;20203;-80
2023/04/29 02:32:20;;;;;;;13.82;10.25;;;11.50;99.90;;;;;;5030774;28;20549;-87
2023/04/29 02:34:55;;;;;;;12.45;9.52;;;11.60;99.90;;;;;;5019487;28;20556;-80
2023/04/29 02:37:25;;;;;;;11.75;10.55;;;11.60;99.90;;;;;;4999254;28;20263;-81
2023/04/29 02:39:52;;;;;;;20.65;10.68;;;11.60;99.90;;;;;;5023548;28;20215;-82
2023/04/29 02:42:20;;;;;;;16.52;11.07;;;11.60;99.90;;;;;;5021863;28;20221;-81
2023/04/29 02:44:46;;;;;;;10.80;9.05;;;11.70;99.90;;;;;;5023016;28;20209;-83
2023/04/29 02:47:15;;;;;;;15.07;9.55;;;11.60;99.90;;;;;;5019502;28;20227;-80
2023/04/29 02:49:42;;;;;;;12.75;9.60;;;11.60;99.90;;;;;;5033945;28;20557;-85
2023/04/29 02:52:09;;;;;;;11.68;10.13;;;11.70;99.90;;;;;;5028935;28;20208;-80
2023/04/29 02:54:36;;;;;;;15.35;9.65;;;11.50;99.90;;;;;;5033229;28;20251;-81
2023/04/29 02:57:03;;;;;;;15.90;9.63;;;11.40;99.90;;;;;;5018580;28;20248;-81
2023/04/29 02:59:30;;;;;;;14.02;9.10;;;11.50;99.90;;;;;;5019753;28;20224;-83
2023/04/29 03:02:00;;;;;;;10.88;8.25;;;11.70;99.90;;;;;;5034212;28;20204;-84
2023/04/29 03:04:27;;;;;;;12.65;9.70;;;11.40;99.90;;;;;;5029559;28;20200;-82
2023/04/29 03:06:56;;;;;;;10.95;8.55;;;11.30;99.90;;;;;;5035012;28;20224;-80
2023/04/29 03:09:24;;;;;;;14.68;9.63;;;11.20;99.90;;;;;;5024422;28;20220;-81
2023/04/29 03:11:51;;;;;;;11.32;8.70;;;11.30;99.90;;;;;;5022565;28;20488;-81
2023/04/29 03:14:19;;;;;;;13.45;9.20;;;11.30;99.90;;;;;;5024941;28;20216;-81
2023/04/29 03:16:45;;;;;;;9.60;7.97;;;11.40;99.90;;;;;;5028337;28;20212;-79
2023/04/29 03:19:12;;;;;;;9.90;8.07;;;11.50;99.90;;;;;;5029682;28;20205;-79
2023/04/29 03:21:39;;;;;;;11.55;8.57;;;11.50;99.90;;;;;;5027998;28;20208;-83
2023/04/29 03:24:06;;;;;;;13.25;9.18;;;11.40;99.90;;;;;;5044508;28;20209;-83
2023/04/29 03:26:33;;;;;;;10.57;8.00;;;11.30;99.90;;;;;;5037916;28;20225;-83
2023/04/29 03:29:04;;;;;;;11.10;8.35;;;11.20;99.90;;;;;;5033924;28;20253;-82
2023/04/29 03:31:31;;;;;;;12.35;7.82;;;11.00;99.90;;;;;;5040171;28;20287;-79
2023/04/29 03:33:58;;;;;;;11.68;9.07;;;10.80;99.90;;;;;;5033618;28;20263;-81
2023/04/29 03:36:25;;;;;;;13.48;10.20;;;10.80;99.90;;;;;;5021771;28;20217;-81
2023/04/29 03:38:52;;;;;;;11.75;9.45;;;10.70;99.90;;;;;;5032193;28;20204;-81
2023/04/29 03:41:19;;;;;;;11.80;9.30;;;10.50;99.90;;;;;;5028645;28;20247;-80
2023/04/29 03:43:50;;;;;;;9.95;8.32;;;10.50;99.90;;;;;;5030152;28;20209;-81
2023/04/29 03:46:17;;;;;;;13.07;9.30;;;10.50;99.90;;;;;;5026132;28;20240;-81
2023/04/29 03:48:44;;;;;;;13.05;9.07;;;10.30;99.90;;;;;;5030928;28;20305;-85
2023/04/29 03:51:12;;;;;;;12.98;9.10;;;10.30;99.90;;;;;;5023192;28;20212;-80
2023/04/29 03:53:39;;;;;;;13.18;9.73;;;10.30;99.90;;;;;;5007770;28;20209;-80
2023/04/29 03:56:07;;;;;;;11.63;9.20;;;10.40;99.90;;;;;;5024522;28;20205;-81
2023/04/29 03:58:33;;;;;;;11.63;8.60;;;10.60;99.90;;;;;;5037700;28;20527;-82
2023/04/29 04:01:01;;;;;;;11.75;8.98;;;10.60;99.90;;;;;;5025228;28;20224;-82
2023/04/29 04:03:27;;;;;;;11.18;10.07;;;10.70;99.90;;;;;;5030787;28;20215;-81
2023/04/29 04:05:54;;;;;;;13.88;9.30;;;10.70;99.90;;;;;;5005792;28;20267;-80
2023/04/29 04:08:28;;;;;;;11.25;8.85;;;10.80;99.90;;;;;;5028782;28;20201;-79
2023/04/29 04:11:01;;;;;;;12.10;9.18;;;10.80;99.90;;;;;;5022105;28;20205;-79
2023/04/29 04:13:28;;;;;;;10.50;9.43;;;10.90;99.90;;;;;;5029737;28;20211;-83
2023/04/29 04:15:55;;;;;;;14.68;10.80;;;10.90;99.90;;;;;;5012901;28;20198;-80
2023/04/29 04:18:24;;;;;;;10.80;8.60;;;10.70;99.90;;;;;;5023517;28;20240;-81
2023/04/29 04:20:51;;;;;;;14.82;9.23;;;10.80;99.90;;;;;;5025375;28;20206;-79
2023/04/29 04:23:17;;;;;;;12.52;8.75;;;10.90;99.90;;;;;;5031438;28;20209;-82
2023/04/29 04:25:47;;;;;;;9.32;8.30;;;11.10;99.90;;;;;;5024259;28;20236;-80
2023/04/29 04:28:14;;;;;;;12.27;8.57;;;11.10;99.90;;;;;;5004310;28;20232;-82
2023/04/29 04:30:41;;;;;;;10.15;8.90;;;11.30;99.90;;;;;;5020836;28;20243;-80
2023/04/29 04:33:09;;;;;;;10.13;8.75;;;11.60;99.90;;;;;;5026391;28;20299;-80
2023/04/29 04:35:36;;;;;;;12.85;8.75;;;11.70;99.90;;;;;;5031451;28;20208;-80
2023/04/29 04:38:04;;;;;;;10.60;8.57;;;11.90;99.90;;;;;;5021814;28;20213;-80
2023/04/29 04:40:33;;;;;;;9.05;8.15;;;12.20;99.90;;;;;;5021761;28;20564;-82
2023/04/29 04:43:01;;;;;;;15.25;8.52;;;12.20;99.90;;;;;;5026770;28;20274;-81
2023/04/29 04:45:30;;;;;;;10.13;9.13;;;12.20;99.90;;;;;;5033218;28;20254;-81
2023/04/29 04:48:00;;;;;;;8.90;7.50;;;12.40;99.90;;;;;;5038725;28;20595;-83
2023/04/29 04:50:28;;;;;;;12.38;8.65;;;12.80;99.90;;;;;;5043065;28;20212;-80
2023/04/29 04:52:55;;;;;;;17.30;8.10;;;13.00;99.90;;;;;;5026361;28;20204;-80
2023/04/29 04:55:26;;;;;;;10.63;8.98;;;13.20;99.90;;;;;;5023748;28;20219;-82
2023/04/29 04:57:52;;;;;;;11.93;8.00;;;13.40;99.90;;;;;;5025155;28;20208;-81
2023/04/29 05:00:19;;;;;;;12.65;8.48;;;13.30;99.90;;;;;;5025811;28;20208;-79
2023/04/29 05:02:49;;;;;;;12.68;8.52;;;13.10;99.90;;;;;;5032500;28;20205;-81
2023/04/29 05:05:17;;;;;;;8.68;7.10;;;13.00;99.90;;;;;;5023042;28;20208;-82
2023/04/29 05:07:44;;;;;;;10.10;8.35;;;13.00;99.90;;;;;;5023220;28;20237;-80
2023/04/29 05:10:10;;;;;;;8.27;7.47;;;12.80;99.90;;;;;;5017996;28;20210;-82
2023/04/29 05:12:38;;;;;;;11.15;8.07;;;12.90;99.90;;;;;;5017816;28;20398;-80
2023/04/29 05:15:05;;;;;;;9.85;8.13;;;13.00;99.90;;;;;;5019725;28;20389;-82
2023/04/29 05:17:33;;;;;;;12.52;8.82;;;13.10;99.90;;;;;;5027952;28;20516;-81
2023/04/29 05:20:00;;;;;;;9.98;8.18;;;13.20;99.90;;;;;;5028422;28;20205;-82
2023/04/29 05:22:27;;;;;;;9.52;7.72;;;13.40;99.90;;;;;;5021216;28;20208;-86
2023/04/29 05:25:01;;;;;;;7.50;6.78;;;13.40;99.90;;;;;;5013410;28;20365;-85
2023/04/29 05:27:29;;;;;;;8.80;6.90;;;13.50;99.90;;;;;;5034362;28;20259;-82
2023/04/29 05:29:56;;;;;;;10.02;7.38;;;13.40;99.90;;;;;;5027406;28;20209;-86
2023/04/29 05:32:24;;;;;;;9.30;8.50;;;13.50;99.90;;;;;;5003517;28;20637;-87
2023/04/29 05:34:53;;;;;;;14.18;8.48;;;13.60;99.90;;;;;;5029452;28;20208;-83
2023/04/29 05:37:20;;;;;;;12.80;9.50;;;13.80;99.90;;;;;;5022002;28;20213;-82
2023/04/29 05:39:50;;;;;;;9.35;8.52;;;14.00;99.90;;;;;;5025779;28;20255;-82
2023/04/29 05:42:18;;;;;;;10.43;8.65;;;14.20;99.90;;;;;;5025256;28;20255;-81
2023/04/29 05:44:45;;;;;;;9.93;9.03;;;14.50;99.90;;;;;;5029024;28;20216;-82
2023/04/29 05:47:16;;;;;;;11.30;7.83;;;15.00;99.90;;;;;;5020431;28;20487;-83
2023/04/29 05:49:45;;;;;;;12.47;8.10;;;15.10;99.90;;;;;;5004508;28;20435;-84
2023/04/29 05:52:11;;;;;;;13.73;8.90;;;15.30;99.90;;;;;;5029033;28;21077;-83
2023/04/29 05:54:42;;;;;;;11.27;8.70;;;15.50;99.90;;;;;;5008162;28;20478;-86
2023/04/29 05:57:13;;;;;;;8.53;7.53;;;15.90;99.90;;;;;;5023351;28;20446;-82
2023/04/29 05:59:40;;;;;;;11.00;8.70;;;15.90;99.90;;;;;;5022839;28;20461;-84
2023/04/29 06:02:07;;;;;;;9.50;8.53;;;16.00;99.90;;;;;;5039420;28;20592;-81
2023/04/29 06:04:34;;;;;;;10.80;8.40;;;16.50;99.90;;;;;;5029036;28;20712;-83
2023/04/29 06:07:01;;;;;;;9.43;8.47;;;16.70;99.90;;;;;;5022270;28;20466;-82
2023/04/29 06:09:28;;;;;;;8.70;7.80;;;16.70;99.90;;;;;;5027794;28;20493;-81
2023/04/29 06:12:03;;;;;;;10.10;8.73;;;16.60;99.90;;;;;;5017707;28;20801;-82
2023/04/29 06:14:31;;;;;;;9.83;8.43;;;16.70;99.90;;;;;;5021395;28;20442;-80
2023/04/29 06:16:58;;;;;;;9.43;8.50;;;16.70;99.90;;;;;;5009887;28;20489;-81
2023/04/29 06:19:31;;;;;;;8.80;7.80;;;16.60;99.90;;;;;;5028026;28;20412;-81
2023/04/29 06:22:01;;;;;;;7.93;7.23;;;16.70;99.90;;;;;;5014420;28;20401;-83
2023/04/29 06:24:28;;;;;;;10.83;8.50;;;17.00;99.90;;;;;;5026899;28;20432;-82
2023/04/29 06:26:57;;;;;;;13.93;8.20;;;16.60;99.90;;;;;;5022560;28;20461;-82
2023/04/29 06:29:23;;;;;;;11.93;8.93;;;16.50;99.90;;;;;;5026555;28;20437;-83
2023/04/29 06:31:51;;;;;;;14.63;7.40;;;16.40;99.90;;;;;;5006156;28;20442;-83
2023/04/29 06:34:19;;;;;;;9.97;9.07;;;16.30;99.90;;;;;;5022481;28;20445;-82
2023/04/29 06:36:48;;;;;;;10.10;9.10;;;16.20;99.90;;;;;;5016253;28;20447;-83
2023/04/29 06:39:15;;;;;;;11.37;9.60;;;16.20;99.90;;;;;;5023374;28;20426;-82
2023/04/29 06:41:45;;;;;;;9.83;8.90;;;15.80;99.90;;;;;;5020401;28;20763;-83
2023/04/29 06:44:12;;;;;;;11.57;8.60;;;15.70;99.90;;;;;;5025149;28;20912;-82
2023/04/29 06:46:39;;;;;;;14.90;12.00;;;15.30;99.90;;;;;;5030554;28;20445;-83
2023/04/29 06:49:06;;;;;;;14.37;9.63;;;15.30;99.90;;;;;;5015752;28;20487;-86
2023/04/29 06:51:33;;;;;;;10.67;9.67;;;15.50;99.90;;;;;;5022628;28;20666;-84
2023/04/29 06:54:00;;;;;;;15.73;10.90;;;15.50;99.90;;;;;;5023457;28;20804;-84
2023/04/29 06:56:26;;;;;;;13.27;10.33;;;15.30;99.90;;;;;;5007694;28;20505;-84
2023/04/29 06:58:53;;;;;;;12.93;9.83;;;15.20;99.90;;;;;;4997364;28;20458;-83
2023/04/29 07:01:20;;;;;;;12.33;9.77;;;15.10;99.90;;;;;;5001890;28;20458;-84
2023/04/29 07:03:47;;;;;;;12.47;10.47;;;15.00;99.90;;;;;;5002039;28;21041;-84
2023/04/29 07:06:15;;;;;;;18.40;11.33;;;15.30;99.90;;;;;;4996044;28;20496;-84
2023/04/29 07:08:42;;;;;;;11.30;10.20;;;15.30;99.90;;;;;;4996531;28;20491;-84
2023/04/29 07:11:09;;;;;;;11.40;9.93;;;14.90;99.90;;;;;;4994774;28;20447;-82
2023/04/29 07:13:40;;;;;;;13.23;10.93;;;14.90;99.90;;;;;;4997271;28;20451;-84
2023/04/29 07:16:19;;;;;;;13.20;10.93;;;15.00;99.90;;;;;;4984216;28;20455;-84
2023/04/29 07:18:49;;;;;;;11.73;10.47;;;14.90;99.90;;;;;;5000052;28;20459;-84
2023/04/29 07:21:18;;;;;;;16.03;10.77;;;15.00;99.90;;;;;;4999888;28;20762;-85
2023/04/29 07:23:46;;;;;;;14.80;10.33;;;15.20;99.90;;;;;;5011237;28;20430;-85
2023/04/29 07:26:16;;;;;;;12.73;10.83;;;15.20;99.90;;;;;;5000459;28;20498;-85
2023/04/29 07:28:44;;;;;;;11.18;9.77;;;15.30;99.90;;;;;;5004251;28;20483;-85
2023/04/29 07:31:13;;;;;;;14.00;11.37;;;15.30;99.90;;;;;;5008874;28;20200;-82
2023/04/29 07:33:40;;;;;;;12.87;11.57;;;15.40;99.90;;;;;;5013724;28;20427;-85
2023/04/29 07:36:06;;;;;;;15.80;12.30;;;15.40;99.90;;;;;;5020516;28;20455;-85
2023/04/29 07:38:35;;;;;;;13.10;10.50;;;15.20;99.90;;;;;;5011288;28;20941;-86
2023/04/29 07:41:03;;;;;;;16.90;11.50;;;15.00;99.90;;;;;;5014128;28;20799;-86
2023/04/29 07:43:30;;;;;;;17.50;11.30;;;15.00;99.90;;;;;;5001879;28;20514;-83
2023/04/29 07:45:57;;;;;;;14.77;11.23;;;15.10;99.90;;;;;;4989198;28;20458;-87
2023/04/29 07:48:24;;;;;;;12.13;10.90;;;15.40;99.90;;;;;;5000880;28;20489;-86
2023/04/29 07:50:51;;;;;;;13.47;12.10;;;15.50;99.90;;;;;;5001177;28;20639;-85
2023/04/29 07:53:18;;;;;;;13.47;11.73;;;15.70;99.90;;;;;;4984920;28;20455;-83
2023/04/29 07:55:46;;;;;;;12.00;10.40;;;15.60;99.90;;;;;;5005508;28;20481;-86
2023/04/29 07:58:13;;;;;;;13.83;10.07;;;15.80;99.90;;;;;;5006072;28;20444;-85
2023/04/29 08:00:40;;;;;;;15.07;11.63;;;15.90;99.90;;;;;;4998939;28;20451;-86
2023/04/29 08:03:07;;;;;;;13.50;11.27;;;16.00;99.90;;;;;;4997644;28;20469;-86
2023/04/29 08:05:35;;;;;;;11.70;9.93;;;16.10;99.90;;;;;;4982832;28;20447;-85
2023/04/29 08:08:02;;;;;;;11.03;9.57;;;16.00;99.90;;;;;;5000481;28;20478;-88
2023/04/29 08:10:29;;;;;;;9.43;8.40;;;15.90;99.90;;;;;;5000444;28;20443;-84
2023/04/29 08:12:58;;;;;;;9.77;8.77;;;16.00;99.90;;;;;;4990763;28;20456;-86
2023/04/29 08:15:25;;;;;;;10.60;9.50;;;16.10;99.90;;;;;;4995225;28;20490;-83
2023/04/29 08:17:54;;;;;;;11.43;9.10;;;16.10;99.90;;;;;;5016827;28;20527;-86
2023/04/29 08:20:21;;;;;;;11.00;8.67;;;15.90;99.90;;;;;;4984845;28;20635;-85
2023/04/29 08:22:48;;;;;;;8.13;6.40;;;15.50;99.90;;;;;;4993849;28;20459;-83
2023/04/29 08:25:15;;;;;;;7.07;6.37;;;15.50;99.90;;;;;;4999364;28;20443;-86
2023/04/29 08:27:44;;;;;;;7.10;6.40;;;15.50;99.90;;;;;;4996470;28;20487;-86
2023/04/29 08:30:13;;;;;;;5.60;5.00;;;15.50;99.90;;;;;;4997760;28;20455;-85
2023/04/29 08:32:44;;;;;;;8.60;7.50;;;15.60;99.90;;;;;;4997583;28;20439;-87
2023/04/29 08:35:10;;;;;;;6.73;6.00;;;15.80;99.90;;;;;;5005983;28;20940;-85
2023/04/29 08:37:38;;;;;;;10.67;6.87;;;15.90;99.90;;;;;;5013982;28;20447;-84
2023/04/29 08:40:08;;;;;;;7.40;6.33;;;15.80;99.90;;;;;;5021958;28;20414;-84
2023/04/29 08:42:37;;;;;;;8.17;7.37;;;15.70;99.90;;;;;;4998815;28;20480;-86
2023/04/29 08:45:05;;;;;;;7.07;6.47;;;15.70;99.90;;;;;;4999449;28;20459;-84
2023/04/29 08:47:34;;;;;;;8.23;7.00;;;15.70;99.90;;;;;;5002306;28;20961;-83
2023/04/29 08:50:03;;;;;;;7.80;7.00;;;15.80;99.90;;;;;;5002081;28;20518;-85
2023/04/29 08:52:31;;;;;;;9.90;7.67;;;15.90;99.90;;;;;;4997912;28;20486;-86
2023/04/29 08:55:01;;;;;;;8.63;7.73;;;16.20;99.90;;;;;;5007845;28;20638;-85
2023/04/29 08:57:30;;;;;;;11.77;8.80;;;16.40;99.90;;;;;;5009808;28;20483;-83
2023/04/29 09:00:00;;;;;;;11.90;9.27;;;16.40;99.90;;;;;;5003276;28;20447;-84
2023/04/29 09:02:27;;;;;;;12.83;9.90;;;16.80;99.90;;;;;;5010785;28;20873;-84
2023/04/29 09:05:07;;;;;;;10.90;9.13;;;17.10;99.90;;;;;;5002234;28;20466;-84
2023/04/29 09:07:38;;;;;;;14.40;10.93;;;17.30;99.90;;;;;;5002306;28;20446;-85
2023/04/29 09:10:06;;;;;;;12.13;9.70;;;17.60;99.90;;;;;;5003453;28;20451;-83
2023/04/29 09:12:33;;;;;;;16.80;11.47;;;17.50;99.90;;;;;;5007599;28;20434;-83
2023/04/29 09:15:01;;;;;;;14.33;10.60;;;17.90;99.90;;;;;;5001379;28;20503;-87
2023/04/29 09:17:42;;;;;;;16.43;11.10;;;18.10;99.90;;;;;;5000054;28;20455;-85
2023/04/29 09:20:20;;;;;;;12.23;10.50;;;18.50;99.90;;;;;;4997307;28;20435;-86
2023/04/29 09:22:49;;;;;;;16.03;11.13;;;19.60;99.90;;;;;;5007429;28;20444;-84
2023/04/29 09:25:18;;;;;;;10.63;9.63;;;20.40;99.90;;;;;;4991921;28;20489;-84
2023/04/29 09:27:47;;;;;;;13.10;11.03;;;20.60;99.90;;;;;;5007879;28;20514;-86
2023/04/29 09:30:15;;;;;;;13.20;11.40;;;21.00;99.90;;;;;;4997644;28;20804;-84
2023/04/29 09:32:43;;;;;;;11.20;9.10;;;20.90;99.90;;;;;;5000643;28;20447;-85
2023/04/29 09:35:22;;;;;;;11.50;10.43;;;21.10;99.90;;;;;;4998730;28;20435;-82
2023/04/29 09:37:50;;;;;;;11.00;9.70;;;21.00;99.90;;;;;;5008345;28;20517;-84
2023/04/29 09:40:32;;;;;;;9.90;8.90;;;20.60;99.90;;;;;;4992527;28;20502;-85
2023/04/29 09:43:17;;;;;;;9.17;6.97;;;20.50;99.90;;;;;;4997682;28;20439;-83
2023/04/29 09:45:46;;;;;;;8.23;6.73;;;20.70;99.90;;;;;;5000321;28;20792;-83
2023/04/29 09:48:14;;;;;;;8.33;7.53;;;20.60;99.90;;;;;;5004976;28;20502;-85
2023/04/29 09:50:43;;;;;;;5.43;4.90;;;20.30;99.90;;;;;;4986693;28;20421;-84
2023/04/29 09:53:26;;;;;;;5.77;5.17;;;20.40;99.90;;;;;;5003701;28;20436;-83
2023/04/29 09:55:53;;;;;;;5.93;5.43;;;19.80;99.90;;;;;;5014266;28;20525;-83
2023/04/29 09:58:36;;;;;;;11.13;6.03;;;20.30;99.90;;;;;;5004865;28;20438;-84
2023/04/29 10:01:04;;;;;;;5.53;5.03;;;20.50;99.90;;;;;;4972822;28;20425;-82
2023/04/29 10:03:34;;;;;;;6.37;5.77;;;20.30;99.90;;;;;;5001308;28;20504;-84
2023/04/29 10:06:03;;;;;;;5.50;5.00;;;19.70;99.90;;;;;;5009249;28;20422;-85
2023/04/29 10:08:31;;;;;;;6.13;5.53;;;19.70;99.90;;;;;;5007137;28;20513;-84
2023/04/29 10:11:02;;;;;;;6.33;5.70;;;19.90;99.90;;;;;;4992046;28;20426;-85
2023/04/29 10:13:30;;;;;;;6.50;5.50;;;20.10;99.90;;;;;;5006841;28;20422;-86
2023/04/29 10:16:17;;;;;;;6.60;4.93;;;20.90;99.90;;;;;;5010742;28;20681;-86
2023/04/29 10:18:52;;;;;;;6.70;3.93;;;21.30;99.90;;;;;;5001092;28;20493;-87
2023/04/29 10:21:25;;;;;;;4.73;4.33;;;21.80;99.90;;;;;;5005970;28;20461;-84
2023/04/29 10:23:55;;;;;;;4.90;4.10;;;22.20;99.90;;;;;;4997964;28;20436;-84
2023/04/29 10:26:36;;;;;;;6.30;3.97;;;22.80;99.90;;;;;;5013415;28;20413;-82
2023/04/29 10:29:07;;;;;;;4.60;4.20;;;22.70;99.90;;;;;;5004151;28;20449;-82
2023/04/29 10:31:35;;;;;;;7.77;4.73;;;22.60;99.90;;;;;;4982409;28;20657;-86
2023/04/29 10:34:02;;;;;;;4.83;4.47;;;22.90;99.90;;;;;;5008978;28;20431;-85
2023/04/29 10:36:30;;;;;;;6.60;4.47;;;22.90;99.90;;;;;;4989060;28;20814;-84
2023/04/29 10:39:02;;;;;;;6.00;4.30;;;22.60;99.90;;;;;;5015805;28;20433;-84
2023/04/29 10:41:36;;;;;;;8.53;4.33;;;22.40;99.90;;;;;;5010923;28;20455;-84
2023/04/29 10:44:05;;;;;;;4.47;4.00;;;22.30;99.90;;;;;;5016328;28;20414;-83
2023/04/29 10:46:34;;;;;;;4.40;4.00;;;22.40;99.90;;;;;;5010272;28;20425;-85
2023/04/29 10:49:03;;;;;;;9.37;4.53;;;22.30;99.90;;;;;;5006061;28;20461;-85
2023/04/29 10:51:38;;;;;;;4.40;4.00;;;21.90;99.90;;;;;;4995383;28;20421;-84
2023/04/29 10:54:14;;;;;;;4.60;3.67;;;22.20;99.90;;;;;;5021834;28;20424;-87
2023/04/29 10:56:49;;;;;;;3.80;3.33;;;22.10;99.90;;;;;;5013900;28;20455;-85
2023/04/29 10:59:21;;;;;;;4.50;4.10;;;21.70;99.90;;;;;;5017231;28;20427;-85
2023/04/29 11:01:52;;;;;;;3.90;3.50;;;21.70;99.90;;;;;;4999222;28;20772;-86
2023/04/29 11:04:21;;;;;;;3.53;3.23;;;21.60;99.90;;;;;;5006413;28;20422;-85
2023/04/29 11:07:00;;;;;;;5.27;3.63;;;21.20;99.90;;;;;;4997787;28;20430;-85
2023/04/29 11:09:28;;;;;;;5.73;3.57;;;21.20;99.90;;;;;;4999212;28;20708;-83
2023/04/29 11:12:02;;;;;;;4.47;3.70;;;21.10;99.90;;;;;;4998361;28;20487;-86
2023/04/29 11:14:37;;;;;;;3.47;3.17;;;21.10;99.90;;;;;;5000283;28;20465;-83
2023/04/29 11:17:16;;;;;;;6.40;5.50;;;21.00;99.90;;;;;;4985811;28;20415;-85
2023/04/29 11:19:49;;;;;;;3.30;3.00;;;21.50;99.90;;;;;;5002599;28;20537;-87
2023/04/29 11:22:22;;;;;;;6.23;3.80;;;21.50;99.90;;;;;;4991275;28;20426;-86
2023/04/29 11:24:51;;;;;;;4.73;4.10;;;21.50;99.90;;;;;;5006272;28;20408;-83
2023/04/29 11:27:21;;;;;;;4.87;3.30;;;21.60;99.90;;;;;;5007215;28;20488;-85
2023/04/29 11:29:49;;;;;;;3.93;3.63;;;21.50;99.90;;;;;;5006855;28;20475;-84
2023/04/29 11:32:20;;;;;;;4.63;2.93;;;21.60;99.90;;;;;;5001465;28;20465;-85
2023/04/29 11:34:48;;;;;;;4.30;3.90;;;21.30;99.90;;;;;;5000131;28;20588;-85
2023/04/29 11:37:20;;;;;;;4.30;3.60;;;21.00;99.90;;;;;;5008032;28;20409;-86
2023/04/29 11:39:51;;;;;;;2.60;2.40;;;21.00;99.90;;;;;;5020424;28;20468;-85
2023/04/29 11:42:21;;;;;;;4.90;3.47;;;21.10;99.90;;;;;;5008517;28;20458;-85
2023/04/29 11:44:55;;;;;;;2.90;2.70;;;21.70;99.90;;;;;;5016963;28;20417;-85
2023/04/29 11:47:30;;;;;;;2.90;2.60;;;22.20;99.90;;;;;;4998021;28;20414;-85
2023/04/29 11:50:05;;;;;;;4.13;3.30;;;22.40;99.90;;;;;;5006837;28;20453;-85
2023/04/29 11:52:34;;;;;;;3.93;3.63;;;22.40;99.90;;;;;;5005559;28;20532;-84
2023/04/29 11:55:03;;;;;;;8.33;2.70;;;22.40;99.90;;;;;;4997480;28;20431;-86
2023/04/29 11:57:30;;;;;;;4.20;3.10;;;22.70;99.90;;;;;;5002784;28;20943;-85
2023/04/29 11:59:58;;;;;;;5.53;4.33;;;22.70;99.90;;;;;;5241266;22;21687;-85
2023/04/29 12:02:30;;;;;;;4.50;3.57;;;23.00;99.90;;;;;;4964134;28;20471;-85
2023/04/29 12:05:05;;;;;;;4.03;3.43;;;23.10;99.90;;;;;;4982288;28;20444;-85
2023/04/29 12:07:33;;;;;;;6.40;5.20;;;23.00;99.90;;;;;;4983061;28;20444;-87
2023/04/29 12:10:00;;;;;;;3.80;3.43;;;22.90;99.90;;;;;;5058199;23;20799;-88
2023/04/29 12:12:28;;;;;;;4.83;3.80;;;22.60;99.90;;;;;;4987312;28;20427;-87
2023/04/29 12:14:57;;;;;;;4.10;3.80;;;22.30;99.90;;;;;;5018918;23;20559;-88
2023/04/29 12:17:24;;;;;;;4.03;3.70;;;21.70;99.90;;;;;;4965396;28;20431;-83
2023/04/29 12:19:51;;;;;;;6.23;4.10;;;20.80;99.90;;;;;;4960590;29;20461;-88
2023/04/29 12:22:19;;;;;;;7.50;5.17;;;20.30;99.90;;;;;;4966996;28;20415;-86
2023/04/29 12:24:46;;;;;;;4.17;3.80;;;19.90;99.90;;;;;;5083071;23;20524;-86
2023/04/29 12:27:13;;;;;;;8.33;5.03;;;19.70;99.90;;;;;;5068232;23;20479;-87
2023/04/29 12:29:40;;;;;;;6.60;5.67;;;19.50;99.90;;;;;;5000484;28;20467;-86
2023/04/29 12:32:15;;;;;;;6.93;4.77;;;19.30;99.90;;;;;;5024271;23;20470;-87
2023/04/29 12:34:45;;;;;;;4.93;4.40;;;19.30;99.90;;;;;;4977672;28;20419;-88
2023/04/29 12:37:15;;;;;;;6.30;5.80;;;19.70;99.90;;;;;;4998280;28;20399;-85
2023/04/29 12:39:43;;;;;;;5.30;4.80;;;20.40;99.90;;;;;;4970873;28;20474;-86
2023/04/29 12:42:18;;;;;;;5.83;5.33;;;21.20;99.90;;;;;;5174526;22;20488;-83
2023/04/29 12:44:48;;;;;;;6.50;5.80;;;21.70;99.90;;;;;;4995394;28;20431;-86
2023/04/29 12:47:17;;;;;;;5.97;4.97;;;22.10;99.90;;;;;;5000953;28;20455;-85
2023/04/29 12:49:45;;;;;;;4.93;4.53;;;22.10;99.90;;;;;;4996020;28;20508;-85
2023/04/29 12:52:15;;;;;;;3.00;2.80;;;22.20;99.90;;;;;;5003596;28;20451;-88